createdAt,value
2023-03-01T00:01:07.170Z,103068.56
2023-03-01T00:03:34.899Z,103061.13
2023-03-01T00:06:04.184Z,103064.97
2023-03-01T00:08:34.139Z,103057.63
2023-03-01T00:11:12.887Z,103057.13
2023-03-01T00:13:39.971Z,103056.13
2023-03-01T00:16:09.956Z,103064.47
2023-03-01T00:18:36.840Z,103066.94
2023-03-01T00:21:04.735Z,103065.19
2023-03-01T00:23:31.332Z,103065.19
2023-03-01T00:25:58.338Z,103059.00
2023-03-01T00:28:24.914Z,103052.53
2023-03-01T00:30:51.704Z,103049.19
2023-03-01T00:33:18.873Z,103047.31
2023-03-01T00:35:46.619Z,103047.44
2023-03-01T00:38:13.267Z,103047.56
2023-03-01T00:40:40.979Z,103049.31
2023-03-01T00:43:07.615Z,103047.31
2023-03-01T00:45:34.502Z,103034.66
2023-03-01T00:48:01.301Z,103040.00
2023-03-01T00:50:28.358Z,103041.00
2023-03-01T00:52:55.960Z,103033.03
2023-03-01T00:55:23.357Z,103027.56
2023-03-01T00:57:49.971Z,103032.91
2023-03-01T01:00:17.149Z,103031.19
2023-03-01T01:02:43.748Z,103034.03
2023-03-01T01:05:10.538Z,103036.75
2023-03-01T01:07:37.100Z,103035.16
2023-03-01T01:10:05.315Z,103026.97
2023-03-01T01:12:32.576Z,103025.22
2023-03-01T01:14:59.683Z,103018.22
2023-03-01T01:17:26.288Z,103010.91
2023-03-01T01:19:52.915Z,103008.41
2023-03-01T01:22:19.414Z,102998.63
2023-03-01T01:24:46.075Z,102998.63
2023-03-01T01:27:12.613Z,102994.28
2023-03-01T01:29:39.393Z,102988.81
2023-03-01T01:32:06.136Z,102991.53
2023-03-01T01:34:32.814Z,102988.69
2023-03-01T01:37:03.576Z,102993.28
2023-03-01T01:39:30.669Z,102989.81
2023-03-01T01:41:57.388Z,102984.34
2023-03-01T01:44:27.487Z,102978.25
2023-03-01T01:46:57.100Z,102980.47
2023-03-01T01:49:42.175Z,102973.28
2023-03-01T01:52:22.184Z,102969.94
2023-03-01T01:54:51.847Z,102968.19
2023-03-01T01:57:26.968Z,102966.84
2023-03-01T01:59:55.046Z,102967.09
2023-03-01T02:02:23.282Z,102966.34
2023-03-01T02:04:59.556Z,102966.34
2023-03-01T02:07:27.500Z,102966.56
2023-03-01T02:09:54.349Z,102972.03
2023-03-01T02:12:24.934Z,102968.06
2023-03-01T02:14:51.582Z,102975.75
2023-03-01T02:17:19.491Z,102975.38
2023-03-01T02:19:59.200Z,102973.91
2023-03-01T02:22:31.017Z,102977.88
2023-03-01T02:25:41.230Z,102971.41
2023-03-01T02:28:16.766Z,102966.81
2023-03-01T02:31:04.135Z,102961.13
2023-03-01T02:33:33.781Z,102964.34
2023-03-01T02:36:20.735Z,102966.22
2023-03-01T02:38:48.894Z,102961.25
2023-03-01T02:41:17.212Z,102960.38
2023-03-01T02:43:44.499Z,102950.69
2023-03-01T02:46:24.105Z,102954.06
2023-03-01T02:48:55.961Z,102947.97
2023-03-01T02:51:50.138Z,102949.34
2023-03-01T02:54:40.804Z,102947.47
2023-03-01T02:57:08.416Z,102952.69
2023-03-01T02:59:40.409Z,102952.91
2023-03-01T03:02:21.544Z,102962.09
2023-03-01T03:04:48.111Z,102962.31
2023-03-01T03:07:15.179Z,102963.41
2023-03-01T03:09:41.952Z,102958.09
2023-03-01T03:12:08.616Z,102953.13
2023-03-01T03:14:35.956Z,102960.31
2023-03-01T03:17:07.418Z,102953.66
2023-03-01T03:19:34.035Z,102955.53
2023-03-01T03:22:00.662Z,102951.50
2023-03-01T03:24:28.360Z,102960.31
2023-03-01T03:26:55.020Z,102960.81
2023-03-01T03:29:21.603Z,102955.47
2023-03-01T03:31:48.390Z,102953.63
2023-03-01T03:34:18.998Z,102949.03
2023-03-01T03:36:45.814Z,102958.72
2023-03-01T03:39:12.336Z,102952.38
2023-03-01T03:41:39.000Z,102948.53
2023-03-01T03:44:05.690Z,102943.44
2023-03-01T03:46:32.672Z,102945.91
2023-03-01T03:48:59.797Z,102952.50
2023-03-01T03:51:26.292Z,102945.19
2023-03-01T03:53:53.195Z,102944.06
2023-03-01T03:56:19.818Z,102936.25
2023-03-01T03:58:46.433Z,102935.75
2023-03-01T04:01:13.002Z,102936.63
2023-03-01T04:03:39.748Z,102932.41
2023-03-01T04:06:07.030Z,102930.28
2023-03-01T04:08:37.470Z,102934.63
2023-03-01T04:11:26.057Z,102931.16
2023-03-01T04:13:56.088Z,102926.69
2023-03-01T04:16:23.444Z,102924.94
2023-03-01T04:18:50.091Z,102920.88
2023-03-01T04:21:16.755Z,102919.06
2023-03-01T04:23:43.380Z,102919.19
2023-03-01T04:26:10.260Z,102913.34
2023-03-01T04:28:41.052Z,102904.16
2023-03-01T04:31:19.547Z,102909.00
2023-03-01T04:33:55.032Z,102904.16
2023-03-01T04:36:31.523Z,102899.41
2023-03-01T04:38:58.622Z,102902.75
2023-03-01T04:41:26.709Z,102898.03
2023-03-01T04:43:53.435Z,102897.91
2023-03-01T04:46:21.764Z,102897.91
2023-03-01T04:48:48.897Z,102905.50
2023-03-01T04:51:16.642Z,102905.00
2023-03-01T04:53:44.462Z,102904.13
2023-03-01T04:56:11.079Z,102895.31
2023-03-01T04:58:38.097Z,102886.38
2023-03-01T05:01:16.153Z,102892.47
2023-03-01T05:03:50.938Z,102892.59
2023-03-01T05:06:18.942Z,102884.03
2023-03-01T05:08:45.513Z,102890.22
2023-03-01T05:11:12.875Z,102889.47
2023-03-01T05:13:40.635Z,102882.41
2023-03-01T05:16:12.238Z,102882.03
2023-03-01T05:18:40.519Z,102883.38
2023-03-01T05:21:13.120Z,102872.47
2023-03-01T05:23:39.825Z,102870.13
2023-03-01T05:26:11.393Z,102871.06
2023-03-01T05:28:42.936Z,102867.72
2023-03-01T05:31:10.708Z,102863.44
2023-03-01T05:33:39.034Z,102856.84
2023-03-01T05:36:07.160Z,102850.03
2023-03-01T05:38:34.061Z,102855.00
2023-03-01T05:41:00.753Z,102845.56
2023-03-01T05:43:27.464Z,102845.06
2023-03-01T05:45:53.946Z,102853.63
2023-03-01T05:48:20.674Z,102847.94
2023-03-01T05:50:48.559Z,102846.31
2023-03-01T05:53:22.145Z,102850.03
2023-03-01T05:55:49.184Z,102848.69
2023-03-01T05:58:19.324Z,102849.09
2023-03-01T06:00:48.660Z,102857.75
2023-03-01T06:03:18.014Z,102857.88
2023-03-01T06:05:45.132Z,102857.13
2023-03-01T06:08:13.080Z,102855.13
2023-03-01T06:10:40.083Z,102858.34
2023-03-01T06:13:06.740Z,102857.84
2023-03-01T06:15:33.510Z,102850.91
2023-03-01T06:18:00.493Z,102856.97
2023-03-01T06:20:29.183Z,102858.09
2023-03-01T06:22:55.997Z,102859.28
2023-03-01T06:25:24.670Z,102862.75
2023-03-01T06:27:53.234Z,102862.88
2023-03-01T06:30:22.193Z,102861.13
2023-03-01T06:32:49.564Z,102856.81
2023-03-01T06:35:20.648Z,102849.50
2023-03-01T06:37:48.776Z,102853.84
2023-03-01T06:40:17.003Z,102857.09
2023-03-01T06:42:48.338Z,102852.16
2023-03-01T06:45:15.221Z,102855.13
2023-03-01T06:47:41.782Z,102850.94
2023-03-01T06:50:09.631Z,102846.59
2023-03-01T06:52:36.247Z,102842.63
2023-03-01T06:55:03.216Z,102853.31
2023-03-01T06:57:29.831Z,102847.59
2023-03-01T06:59:57.101Z,102848.72
2023-03-01T07:02:23.802Z,102847.81
2023-03-01T07:04:53.814Z,102842.09
2023-03-01T07:07:20.936Z,102842.72
2023-03-01T07:09:49.299Z,102840.13
2023-03-01T07:12:16.135Z,102851.03
2023-03-01T07:14:44.626Z,102841.13
2023-03-01T07:17:11.351Z,102847.44
2023-03-01T07:19:37.895Z,102849.06
2023-03-01T07:22:05.306Z,102854.13
2023-03-01T07:24:31.908Z,102862.31
2023-03-01T07:26:58.557Z,102860.75
2023-03-01T07:29:25.095Z,102862.97
2023-03-01T07:31:51.975Z,102876.25
2023-03-01T07:34:18.555Z,102870.38
2023-03-01T07:36:47.369Z,102861.69
2023-03-01T07:39:13.912Z,102862.56
2023-03-01T07:41:41.611Z,102861.88
2023-03-01T07:44:08.240Z,102856.38
2023-03-01T07:46:34.788Z,102856.38
2023-03-01T07:49:01.421Z,102857.59
2023-03-01T07:51:28.111Z,102862.69
2023-03-01T07:53:56.742Z,102868.28
2023-03-01T07:56:23.377Z,102864.78
2023-03-01T07:58:51.235Z,102871.19
2023-03-01T08:01:20.245Z,102867.94
2023-03-01T08:03:49.278Z,102869.56
2023-03-01T08:06:17.991Z,102859.53
2023-03-01T08:08:45.707Z,102868.94
2023-03-01T08:11:15.751Z,102869.56
2023-03-01T08:13:43.542Z,102867.56
2023-03-01T08:16:18.320Z,102868.03
2023-03-01T08:18:44.914Z,102867.41
2023-03-01T08:21:14.806Z,102859.09
2023-03-01T08:23:42.511Z,102859.84
2023-03-01T08:26:20.455Z,102857.75
2023-03-01T08:28:48.890Z,102857.75
2023-03-01T08:31:21.663Z,102859.75
2023-03-01T08:33:51.762Z,102859.75
2023-03-01T08:36:19.549Z,102861.47
2023-03-01T08:38:46.859Z,102854.28
2023-03-01T08:41:14.127Z,102846.84
2023-03-01T08:43:42.296Z,102841.16
2023-03-01T08:46:09.603Z,102832.97
2023-03-01T08:48:36.658Z,102842.28
2023-03-01T08:51:17.000Z,102828.09
2023-03-01T08:53:44.253Z,102830.94
2023-03-01T08:56:11.545Z,102830.44
2023-03-01T08:58:40.496Z,102833.53
2023-03-01T09:01:11.880Z,102831.28
2023-03-01T09:03:38.940Z,102833.50
2023-03-01T09:06:15.590Z,102838.31
2023-03-01T09:08:44.772Z,102833.25
2023-03-01T09:11:16.239Z,102833.34
2023-03-01T09:13:44.330Z,102832.38
2023-03-01T09:16:23.484Z,102834.22
2023-03-01T09:18:52.276Z,102827.03
2023-03-01T09:21:39.209Z,102825.81
2023-03-01T09:24:14.076Z,102823.81
2023-03-01T09:26:40.741Z,102811.94
2023-03-01T09:29:10.539Z,102820.84
2023-03-01T09:31:37.624Z,102811.69
2023-03-01T09:34:05.811Z,102810.69
2023-03-01T09:36:32.611Z,102806.72
2023-03-01T09:39:02.622Z,102809.31
2023-03-01T09:41:52.401Z,102811.72
2023-03-01T09:44:32.628Z,102808.63
2023-03-01T09:47:00.512Z,102802.53
2023-03-01T09:49:31.448Z,102795.59
2023-03-01T09:52:22.120Z,102792.25
2023-03-01T09:54:52.634Z,102787.19
2023-03-01T09:57:54.718Z,102789.28
2023-03-01T10:00:31.758Z,102780.81
2023-03-01T10:03:27.296Z,102781.66
2023-03-01T10:06:01.244Z,102768.59
2023-03-01T10:08:39.958Z,102766.44
2023-03-01T10:11:30.901Z,102768.84
2023-03-01T10:14:03.989Z,102762.88
2023-03-01T10:16:39.935Z,102760.34
2023-03-01T10:19:15.060Z,102753.81
2023-03-01T10:21:45.745Z,102748.75
2023-03-01T10:24:19.945Z,102749.69
2023-03-01T10:26:53.358Z,102734.38
2023-03-01T10:29:25.202Z,102738.44
2023-03-01T10:31:54.010Z,102734.88
2023-03-01T10:34:22.235Z,102731.47
2023-03-01T10:36:52.067Z,102729.91
2023-03-01T10:39:22.027Z,102736.66
2023-03-01T10:42:20.314Z,102730.72
2023-03-01T10:44:49.230Z,102728.81
2023-03-01T10:47:18.142Z,102726.41
2023-03-01T10:49:59.945Z,102720.97
2023-03-01T10:52:36.290Z,102725.47
2023-03-01T10:55:28.055Z,102721.66
2023-03-01T10:58:15.579Z,102725.44
2023-03-01T11:00:53.786Z,102730.34
2023-03-01T11:03:24.775Z,102720.00
2023-03-01T11:06:07.738Z,102725.66
2023-03-01T11:08:37.650Z,102716.47
2023-03-01T11:11:10.439Z,102729.44
2023-03-01T11:13:40.095Z,102726.88
2023-03-01T11:16:11.230Z,102718.94
2023-03-01T11:18:47.569Z,102722.97
2023-03-01T11:21:16.742Z,102718.56
2023-03-01T11:23:47.786Z,102717.81
2023-03-01T11:26:16.692Z,102705.28
2023-03-01T11:28:49.303Z,102709.75
2023-03-01T11:31:17.851Z,102705.56
2023-03-01T11:33:59.538Z,102707.75
2023-03-01T11:36:49.561Z,102700.81
2023-03-01T11:39:32.433Z,102699.06
2023-03-01T11:42:19.405Z,102700.59
2023-03-01T11:44:49.218Z,102693.66
2023-03-01T11:47:41.289Z,102700.44
2023-03-01T11:50:27.127Z,102707.91
2023-03-01T11:53:15.506Z,102692.31
2023-03-01T11:55:42.120Z,102686.97
2023-03-01T11:58:18.410Z,102693.28
2023-03-01T12:00:51.312Z,102686.75
2023-03-01T12:03:31.368Z,102671.56
2023-03-01T12:06:52.820Z,102683.91
2023-03-01T12:10:23.681Z,102668.97
2023-03-01T12:12:55.866Z,102671.41
2023-03-01T12:15:46.752Z,102670.25
2023-03-01T12:18:31.892Z,102678.72
2023-03-01T12:20:59.154Z,102667.44
2023-03-01T12:23:48.661Z,102665.09
2023-03-01T12:26:36.929Z,102655.63
2023-03-01T12:29:06.373Z,102661.50
2023-03-01T12:31:39.039Z,102664.25
2023-03-01T12:34:30.846Z,102664.00
2023-03-01T12:36:57.487Z,102654.44
2023-03-01T12:39:36.959Z,102641.88
2023-03-01T12:42:22.279Z,102635.91
2023-03-01T12:45:02.410Z,102646.56
2023-03-01T12:47:35.091Z,102640.75
2023-03-01T12:50:19.643Z,102631.16
2023-03-01T12:52:52.187Z,102630.16
2023-03-01T12:55:41.974Z,102618.28
2023-03-01T12:58:48.680Z,102612.63
2023-03-01T13:01:42.151Z,102616.06
2023-03-01T13:04:46.243Z,102614.25
2023-03-01T13:07:41.807Z,102603.63
2023-03-01T13:10:38.350Z,102603.31
2023-03-01T13:13:23.753Z,102598.47
2023-03-01T13:15:52.166Z,102592.88
2023-03-01T13:18:23.119Z,102593.53
2023-03-01T13:20:55.409Z,102594.63
2023-03-01T13:23:22.424Z,102585.78
2023-03-01T13:26:01.068Z,102585.03
2023-03-01T13:28:36.700Z,102581.84
2023-03-01T13:31:06.241Z,102574.09
2023-03-01T13:33:34.295Z,102563.88
2023-03-01T13:36:01.947Z,102563.91
2023-03-01T13:38:54.579Z,102558.09
2023-03-01T13:41:39.767Z,102556.50
2023-03-01T13:44:21.566Z,102543.28
2023-03-01T13:46:49.343Z,102543.50
2023-03-01T13:49:20.334Z,102529.44
2023-03-01T13:51:51.135Z,102525.13
2023-03-01T13:54:26.396Z,102525.69
2023-03-01T13:56:53.988Z,102520.44
2023-03-01T13:59:22.965Z,102517.91
2023-03-01T14:02:00.539Z,102519.66
2023-03-01T14:04:36.877Z,102510.28
2023-03-01T14:07:33.090Z,102507.41
2023-03-01T14:10:03.958Z,102500.22
2023-03-01T14:12:52.202Z,102489.06
2023-03-01T14:15:40.597Z,102495.78
2023-03-01T14:18:22.724Z,102493.91
2023-03-01T14:20:52.198Z,102493.41
2023-03-01T14:23:22.099Z,102495.69
2023-03-01T14:25:52.034Z,102493.28
2023-03-01T14:28:20.400Z,102487.09
2023-03-01T14:30:52.804Z,102492.09
2023-03-01T14:33:21.413Z,102488.66
2023-03-01T14:35:57.713Z,102475.78
2023-03-01T14:38:32.255Z,102479.72
2023-03-01T14:41:06.643Z,102474.25
2023-03-01T14:43:34.015Z,102470.13
2023-03-01T14:46:00.922Z,102461.34
2023-03-01T14:48:29.780Z,102465.00
2023-03-01T14:50:57.048Z,102463.47
2023-03-01T14:53:34.118Z,102456.47
2023-03-01T14:56:04.745Z,102463.91
2023-03-01T14:58:33.803Z,102451.38
2023-03-01T15:01:02.986Z,102451.88
2023-03-01T15:03:44.262Z,102443.47
2023-03-01T15:06:16.775Z,102442.63
2023-03-01T15:08:46.910Z,102442.31
2023-03-01T15:11:30.185Z,102440.44
2023-03-01T15:13:57.288Z,102434.50
2023-03-01T15:16:25.272Z,102442.50
2023-03-01T15:19:01.629Z,102439.13
2023-03-01T15:21:37.424Z,102435.03
2023-03-01T15:24:22.708Z,102436.69
2023-03-01T15:27:02.756Z,102437.38
2023-03-01T15:29:32.349Z,102433.75
2023-03-01T15:32:01.841Z,102435.56
2023-03-01T15:34:31.251Z,102436.44
2023-03-01T15:37:00.973Z,102429.53
2023-03-01T15:39:39.852Z,102428.72
2023-03-01T15:42:30.725Z,102426.78
2023-03-01T15:45:21.490Z,102421.00
2023-03-01T15:47:54.605Z,102433.56
2023-03-01T15:50:23.815Z,102426.19
2023-03-01T15:52:50.970Z,102428.53
2023-03-01T15:55:30.911Z,102422.91
2023-03-01T15:58:03.620Z,102413.72
2023-03-01T16:00:30.446Z,102414.25
2023-03-01T16:02:57.380Z,102412.25
2023-03-01T16:05:25.415Z,102404.28
2023-03-01T16:07:52.697Z,102403.97
2023-03-01T16:10:20.110Z,102400.22
2023-03-01T16:12:48.441Z,102409.03
2023-03-01T16:15:20.178Z,102398.75
2023-03-01T16:17:47.302Z,102396.56
2023-03-01T16:20:28.635Z,102396.41
2023-03-01T16:23:01.989Z,102406.38
2023-03-01T16:25:30.190Z,102395.22
2023-03-01T16:27:59.334Z,102393.97
2023-03-01T16:30:25.940Z,102396.66
2023-03-01T16:32:54.127Z,102400.41
2023-03-01T16:35:22.581Z,102405.41
2023-03-01T16:37:49.846Z,102413.91
2023-03-01T16:40:22.589Z,102408.06
2023-03-01T16:42:49.860Z,102405.84
2023-03-01T16:45:25.238Z,102413.91
2023-03-01T16:47:55.777Z,102406.06
2023-03-01T16:50:25.165Z,102397.94
2023-03-01T16:52:51.742Z,102403.91
2023-03-01T16:55:18.908Z,102401.47
2023-03-01T16:57:45.524Z,102395.91
2023-03-01T17:00:14.173Z,102397.59
2023-03-01T17:02:42.282Z,102402.56
2023-03-01T17:05:11.633Z,102399.34
2023-03-01T17:07:38.725Z,102403.72
2023-03-01T17:10:08.990Z,102402.91
2023-03-01T17:12:36.782Z,102404.97
2023-03-01T17:15:04.979Z,102406.00
2023-03-01T17:17:31.571Z,102402.31
2023-03-01T17:19:58.472Z,102406.19
2023-03-01T17:22:25.062Z,102408.16
2023-03-01T17:24:51.799Z,102412.09
2023-03-01T17:27:19.425Z,102413.03
2023-03-01T17:29:46.033Z,102418.13
2023-03-01T17:32:13.152Z,102415.16
2023-03-01T17:34:40.475Z,102419.84
2023-03-01T17:37:07.026Z,102418.34
2023-03-01T17:39:36.410Z,102418.44
2023-03-01T17:42:05.224Z,102421.66
2023-03-01T17:44:35.081Z,102421.13
2023-03-01T17:47:04.134Z,102426.50
2023-03-01T17:49:31.283Z,102428.94
2023-03-01T17:51:58.135Z,102431.41
2023-03-01T17:54:25.050Z,102426.28
2023-03-01T17:56:52.167Z,102432.91
2023-03-01T17:59:18.798Z,102433.06
2023-03-01T18:01:45.929Z,102438.38
2023-03-01T18:04:13.129Z,102433.50
2023-03-01T18:06:40.866Z,102445.13
2023-03-01T18:09:08.002Z,102448.03
2023-03-01T18:11:36.161Z,102441.84
2023-03-01T18:14:03.920Z,102443.28
2023-03-01T18:16:32.078Z,102445.31
2023-03-01T18:18:59.512Z,102443.13
2023-03-01T18:21:26.446Z,102445.59
2023-03-01T18:23:53.215Z,102432.03
2023-03-01T18:26:22.204Z,102437.22
2023-03-01T18:28:52.890Z,102438.38
2023-03-01T18:31:22.620Z,102436.78
2023-03-01T18:33:51.809Z,102431.59
2023-03-01T18:36:30.661Z,102432.34
2023-03-01T18:38:57.536Z,102431.59
2023-03-01T18:41:26.471Z,102428.56
2023-03-01T18:43:54.376Z,102431.03
2023-03-01T18:46:21.113Z,102427.13
2023-03-01T18:48:48.272Z,102422.81
2023-03-01T18:51:17.848Z,102419.38
2023-03-01T18:53:44.916Z,102423.09
2023-03-01T18:56:12.377Z,102415.34
2023-03-01T18:58:39.170Z,102418.50
2023-03-01T19:01:12.382Z,102418.94
2023-03-01T19:03:38.985Z,102418.66
2023-03-01T19:06:05.758Z,102417.50
2023-03-01T19:08:32.869Z,102414.19
2023-03-01T19:11:02.444Z,102412.03
2023-03-01T19:13:30.426Z,102412.75
2023-03-01T19:16:28.800Z,102410.44
2023-03-01T19:19:00.796Z,102412.03
2023-03-01T19:21:29.876Z,102414.75
2023-03-01T19:23:58.276Z,102411.16
2023-03-01T19:26:27.293Z,102421.25
2023-03-01T19:28:55.397Z,102417.22
2023-03-01T19:31:26.740Z,102422.53
2023-03-01T19:33:59.487Z,102422.53
2023-03-01T19:36:33.273Z,102427.72
2023-03-01T19:39:02.179Z,102429.59
2023-03-01T19:41:28.951Z,102427.13
2023-03-01T19:43:57.288Z,102429.88
2023-03-01T19:46:25.068Z,102426.41
2023-03-01T19:48:53.294Z,102431.03
2023-03-01T19:51:19.978Z,102432.59
2023-03-01T19:53:46.711Z,102423.84
2023-03-01T19:56:13.484Z,102441.09
2023-03-01T19:58:40.303Z,102431.88
2023-03-01T20:01:15.294Z,102433.47
2023-03-01T20:03:42.257Z,102429.72
2023-03-01T20:06:12.603Z,102417.63
2023-03-01T20:08:39.126Z,102425.84
2023-03-01T20:11:09.007Z,102418.50
2023-03-01T20:13:36.239Z,102428.28
2023-03-01T20:16:03.455Z,102420.94
2023-03-01T20:18:30.310Z,102413.31
2023-03-01T20:20:58.806Z,102413.91
2023-03-01T20:23:26.073Z,102413.59
2023-03-01T20:25:53.895Z,102414.75
2023-03-01T20:28:20.503Z,102415.34
2023-03-01T20:30:47.009Z,102420.09
2023-03-01T20:33:13.536Z,102424.56
2023-03-01T20:35:43.608Z,102419.94
2023-03-01T20:38:10.409Z,102420.81
2023-03-01T20:40:38.073Z,102423.69
2023-03-01T20:43:04.831Z,102422.09
2023-03-01T20:45:31.459Z,102429.44
2023-03-01T20:47:58.102Z,102426.13
2023-03-01T20:50:24.613Z,102426.41
2023-03-01T20:52:51.173Z,102431.75
2023-03-01T20:55:19.025Z,102435.19
2023-03-01T20:57:45.576Z,102436.94
2023-03-01T21:00:12.721Z,102421.38
2023-03-01T21:02:39.375Z,102434.06
2023-03-01T21:05:06.765Z,102426.00
2023-03-01T21:07:33.525Z,102420.81
2023-03-01T21:10:00.276Z,102420.09
2023-03-01T21:12:26.959Z,102427.72
2023-03-01T21:14:53.516Z,102421.94
2023-03-01T21:17:20.025Z,102420.38
2023-03-01T21:19:46.790Z,102417.34
2023-03-01T21:22:15.458Z,102413.28
2023-03-01T21:24:42.404Z,102420.75
2023-03-01T21:27:09.722Z,102420.03
2023-03-01T21:29:41.212Z,102412.16
2023-03-01T21:32:09.386Z,102411.00
2023-03-01T21:34:37.744Z,102393.59
2023-03-01T21:37:05.462Z,102408.28
2023-03-01T21:39:32.560Z,102407.28
2023-03-01T21:42:01.038Z,102399.50
2023-03-01T21:44:30.037Z,102401.22
2023-03-01T21:46:58.957Z,102395.63
2023-03-01T21:49:25.869Z,102392.03
2023-03-01T21:51:53.137Z,102388.28
2023-03-01T21:54:21.241Z,102391.00
2023-03-01T21:56:48.339Z,102395.47
2023-03-01T21:59:21.082Z,102390.00
2023-03-01T22:01:48.693Z,102397.19
2023-03-01T22:04:15.637Z,102399.94
2023-03-01T22:06:45.436Z,102402.66
2023-03-01T22:09:18.325Z,102398.22
2023-03-01T22:11:48.907Z,102401.66
2023-03-01T22:14:17.833Z,102397.94
2023-03-01T22:16:45.646Z,102398.34
2023-03-01T22:19:14.700Z,102399.50
2023-03-01T22:21:43.364Z,102397.78
2023-03-01T22:24:11.483Z,102401.81
2023-03-01T22:26:41.396Z,102401.09
2023-03-01T22:29:13.444Z,102401.34
2023-03-01T22:31:41.196Z,102410.69
2023-03-01T22:34:08.727Z,102410.69
2023-03-01T22:36:35.617Z,102409.81
2023-03-01T22:39:04.420Z,102407.66
2023-03-01T22:41:43.082Z,102405.84
2023-03-01T22:44:12.099Z,102414.75
2023-03-01T22:46:39.043Z,102405.53
2023-03-01T22:49:05.894Z,102407.28
2023-03-01T22:51:36.034Z,102414.63
2023-03-01T22:54:03.720Z,102417.50
2023-03-01T22:56:34.154Z,102411.31
2023-03-01T22:59:03.593Z,102418.88
2023-03-01T23:01:31.400Z,102417.31
2023-03-01T23:03:58.417Z,102413.13
2023-03-01T23:06:25.466Z,102412.41
2023-03-01T23:08:54.422Z,102406.38
2023-03-01T23:11:23.103Z,102421.19
2023-03-01T23:13:50.292Z,102415.56
2023-03-01T23:16:18.051Z,102411.09
2023-03-01T23:18:45.158Z,102411.25
2023-03-01T23:21:17.421Z,102407.78
2023-03-01T23:23:46.422Z,102417.56
2023-03-01T23:26:14.534Z,102413.84
2023-03-01T23:28:41.270Z,102413.13
2023-03-01T23:31:10.787Z,102411.25
2023-03-01T23:33:40.241Z,102405.78
2023-03-01T23:36:15.084Z,102410.53
2023-03-01T23:38:42.168Z,102404.19
2023-03-01T23:41:13.789Z,102397.72
2023-03-01T23:43:40.413Z,102397.88
2023-03-01T23:46:07.114Z,102396.84
2023-03-01T23:48:34.214Z,102396.84
2023-03-01T23:51:07.230Z,102392.25
2023-03-01T23:53:36.830Z,102391.41
2023-03-01T23:56:04.012Z,102386.22
2023-03-01T23:58:30.824Z,102380.31
